createdAt,value
2023-04-05T00:00:00.906Z,8.40
2023-04-05T00:02:30.121Z,8.30
2023-04-05T00:04:58.637Z,8.30
2023-04-05T00:07:26.524Z,8.10
2023-04-05T00:09:53.843Z,8.10
2023-04-05T00:12:21.122Z,8.00
2023-04-05T00:14:48.491Z,7.90
2023-04-05T00:17:15.619Z,7.90
2023-04-05T00:19:43.106Z,7.90
2023-04-05T00:22:10.631Z,7.80
2023-04-05T00:24:43.621Z,7.80
2023-04-05T00:27:10.696Z,7.80
2023-04-05T00:29:37.971Z,7.80
2023-04-05T00:32:05.489Z,7.90
2023-04-05T00:34:33.710Z,7.90
2023-04-05T00:37:00.869Z,7.80
2023-04-05T00:39:27.821Z,7.60
2023-04-05T00:41:54.842Z,7.50
2023-04-05T00:44:21.791Z,7.40
2023-04-05T00:46:49.312Z,7.40
2023-04-05T00:49:17.473Z,7.60
2023-04-05T00:51:45.730Z,7.60
2023-04-05T00:54:14.244Z,7.60
2023-04-05T00:56:41.804Z,7.70
2023-04-05T00:59:09.595Z,7.70
2023-04-05T01:01:40.468Z,7.70
2023-04-05T01:04:11.377Z,7.70
2023-04-05T01:07:09.404Z,7.70
2023-04-05T01:09:59.656Z,7.60
2023-04-05T01:12:33.148Z,7.60
2023-04-05T01:15:01.269Z,7.60
2023-04-05T01:17:30.155Z,7.60
2023-04-05T01:20:00.317Z,7.60
2023-04-05T01:23:04.826Z,7.70
2023-04-05T01:25:36.853Z,7.80
2023-04-05T01:28:36.400Z,8.00
2023-04-05T01:31:15.724Z,8.20
2023-04-05T01:33:51.452Z,8.20
2023-04-05T01:36:34.041Z,8.40
2023-04-05T01:39:03.858Z,8.40
2023-04-05T01:41:31.606Z,8.50
2023-04-05T01:43:58.812Z,8.60
2023-04-05T01:46:25.816Z,8.60
2023-04-05T01:48:52.876Z,8.50
2023-04-05T01:51:21.213Z,8.50
2023-04-05T01:53:48.109Z,8.60
2023-04-05T01:56:18.033Z,8.50
2023-04-05T01:58:45.060Z,8.60
2023-04-05T02:01:12.497Z,8.60
2023-04-05T02:03:39.570Z,8.70
2023-04-05T02:06:06.798Z,8.70
2023-04-05T02:08:33.615Z,8.80
2023-04-05T02:11:00.681Z,8.80
2023-04-05T02:13:27.768Z,8.80
2023-04-05T02:15:54.748Z,8.80
2023-04-05T02:18:22.386Z,8.70
2023-04-05T02:20:50.821Z,8.70
2023-04-05T02:23:21.739Z,8.60
2023-04-05T02:25:48.714Z,8.60
2023-04-05T02:28:15.847Z,8.60
2023-04-05T02:30:43.199Z,8.60
2023-04-05T02:33:10.910Z,8.70
2023-04-05T02:35:37.785Z,8.60
2023-04-05T02:38:08.629Z,8.70
2023-04-05T02:40:35.533Z,8.60
2023-04-05T02:43:02.647Z,8.70
2023-04-05T02:45:29.676Z,8.60
2023-04-05T02:47:58.838Z,8.60
2023-04-05T02:50:29.024Z,8.60
2023-04-05T02:52:56.141Z,8.60
2023-04-05T02:55:23.187Z,8.60
2023-04-05T02:57:50.126Z,8.60
2023-04-05T03:00:28.201Z,8.60
2023-04-05T03:02:57.457Z,8.50
2023-04-05T03:05:24.413Z,8.50
2023-04-05T03:07:53.430Z,8.50
2023-04-05T03:10:29.256Z,8.50
2023-04-05T03:13:03.057Z,8.50
2023-04-05T03:15:33.009Z,8.40
2023-04-05T03:18:05.141Z,8.40
2023-04-05T03:20:35.588Z,8.50
2023-04-05T03:23:03.692Z,8.40
2023-04-05T03:25:37.452Z,8.40
2023-04-05T03:28:06.912Z,8.40
2023-04-05T03:30:35.395Z,8.40
2023-04-05T03:33:13.992Z,8.40
2023-04-05T03:35:45.374Z,8.40
2023-04-05T03:38:13.607Z,8.30
2023-04-05T03:41:03.418Z,8.40
2023-04-05T03:43:30.708Z,8.50
2023-04-05T03:45:57.749Z,8.50
2023-04-05T03:48:27.661Z,8.60
2023-04-05T03:50:54.697Z,8.50
2023-04-05T03:53:21.799Z,8.50
2023-04-05T03:55:55.782Z,8.50
2023-04-05T03:58:40.484Z,8.50
2023-04-05T04:01:08.564Z,8.50
2023-04-05T04:03:37.410Z,8.50
2023-04-05T04:06:07.620Z,8.50
2023-04-05T04:08:34.711Z,8.50
2023-04-05T04:11:01.813Z,8.60
2023-04-05T04:13:32.948Z,8.60
2023-04-05T04:16:08.644Z,8.60
2023-04-05T04:18:45.805Z,8.60
2023-04-05T04:21:52.106Z,8.60
2023-04-05T04:24:40.814Z,8.60
2023-04-05T04:27:26.030Z,8.60
2023-04-05T04:30:04.376Z,8.60
2023-04-05T04:32:52.109Z,8.50
2023-04-05T04:35:40.147Z,8.50
2023-04-05T04:38:27.129Z,8.50
2023-04-05T04:41:26.739Z,8.50
2023-04-05T04:44:03.313Z,8.50
2023-04-05T04:46:54.774Z,8.50
2023-04-05T04:49:41.705Z,8.50
2023-04-05T04:52:08.905Z,8.50
2023-04-05T04:54:42.522Z,8.50
2023-04-05T04:57:09.605Z,8.50
2023-04-05T04:59:36.594Z,8.40
2023-04-05T05:02:05.936Z,8.50
2023-04-05T05:04:34.489Z,8.40
2023-04-05T05:07:01.593Z,8.40
2023-04-05T05:09:28.505Z,8.40
2023-04-05T05:11:59.537Z,8.40
2023-04-05T05:14:26.581Z,8.40
2023-04-05T05:16:54.737Z,8.40
2023-04-05T05:19:22.342Z,8.40
2023-04-05T05:21:54.065Z,8.40
2023-04-05T05:24:21.480Z,8.40
2023-04-05T05:26:48.369Z,8.40
2023-04-05T05:29:17.967Z,8.50
2023-04-05T05:31:46.088Z,8.60
2023-04-05T05:34:12.981Z,8.60
2023-04-05T05:36:43.716Z,8.60
2023-04-05T05:39:10.681Z,8.60
2023-04-05T05:41:37.650Z,8.60
2023-04-05T05:44:05.837Z,8.70
2023-04-05T05:46:32.958Z,8.70
2023-04-05T05:48:59.806Z,8.70
2023-04-05T05:51:26.755Z,8.80
2023-04-05T05:53:53.662Z,8.80
2023-04-05T05:56:21.016Z,8.90
2023-04-05T05:58:48.145Z,9.00
2023-04-05T06:01:15.252Z,9.10
2023-04-05T06:03:42.298Z,9.00
2023-04-05T06:06:11.332Z,9.10
2023-04-05T06:08:38.543Z,9.00
2023-04-05T06:11:05.650Z,9.10
2023-04-05T06:13:32.561Z,9.10
2023-04-05T06:16:01.863Z,9.00
2023-04-05T06:18:28.924Z,9.00
2023-04-05T06:20:56.101Z,9.10
2023-04-05T06:23:23.417Z,9.10
2023-04-05T06:25:50.451Z,9.20
2023-04-05T06:28:17.563Z,9.30
2023-04-05T06:30:45.098Z,9.40
2023-04-05T06:33:12.161Z,9.50
2023-04-05T06:35:39.177Z,9.50
2023-04-05T06:38:06.301Z,9.50
2023-04-05T06:40:33.147Z,9.70
2023-04-05T06:43:00.325Z,9.80
2023-04-05T06:45:31.525Z,9.90
2023-04-05T06:48:02.789Z,9.90
2023-04-05T06:50:29.968Z,9.90
2023-04-05T06:52:57.156Z,10.10
2023-04-05T06:55:24.209Z,10.20
2023-04-05T06:57:51.151Z,10.30
2023-04-05T07:00:18.691Z,10.30
2023-04-05T07:02:45.703Z,10.30
2023-04-05T07:05:12.724Z,10.20
2023-04-05T07:07:42.421Z,10.30
2023-04-05T07:10:09.751Z,10.10
2023-04-05T07:12:37.285Z,10.20
2023-04-05T07:15:04.823Z,10.40
2023-04-05T07:17:32.025Z,10.60
2023-04-05T07:19:58.999Z,10.70
2023-04-05T07:22:26.810Z,10.70
2023-04-05T07:24:55.709Z,10.90
2023-04-05T07:27:22.877Z,10.90
2023-04-05T07:29:49.874Z,11.00
2023-04-05T07:32:17.096Z,10.90
2023-04-05T07:34:43.993Z,11.00
2023-04-05T07:37:11.337Z,11.00
2023-04-05T07:39:38.350Z,11.30
2023-04-05T07:42:05.746Z,11.40
2023-04-05T07:44:32.663Z,11.10
2023-04-05T07:46:59.664Z,11.20
2023-04-05T07:49:27.714Z,11.30
2023-04-05T07:51:58.133Z,11.20
2023-04-05T07:54:25.150Z,11.20
2023-04-05T07:56:53.452Z,11.30
2023-04-05T07:59:20.424Z,11.40
2023-04-05T08:01:47.398Z,11.20
2023-04-05T08:04:14.741Z,11.20
2023-04-05T08:06:41.868Z,11.10
2023-04-05T08:09:09.189Z,11.00
2023-04-05T08:11:36.247Z,11.10
2023-04-05T08:14:03.209Z,11.20
2023-04-05T08:16:30.934Z,11.20
2023-04-05T08:18:58.194Z,11.00
2023-04-05T08:21:26.644Z,10.90
2023-04-05T08:23:53.765Z,10.90
2023-04-05T08:26:21.026Z,11.00
2023-04-05T08:28:48.014Z,11.40
2023-04-05T08:31:15.003Z,11.50
2023-04-05T08:33:41.813Z,11.60
2023-04-05T08:36:10.120Z,11.40
2023-04-05T08:38:38.517Z,11.50
2023-04-05T08:41:18.174Z,11.70
2023-04-05T08:43:57.994Z,11.80
2023-04-05T08:46:26.539Z,11.70
2023-04-05T08:48:53.652Z,11.70
2023-04-05T08:51:26.738Z,11.50
2023-04-05T08:53:54.535Z,11.60
2023-04-05T08:56:25.917Z,11.80
2023-04-05T08:59:06.732Z,12.00
2023-04-05T09:01:37.776Z,12.30
2023-04-05T09:04:13.001Z,12.50
2023-04-05T09:06:40.673Z,12.40
2023-04-05T09:09:08.771Z,12.10
2023-04-05T09:11:36.196Z,12.00
2023-04-05T09:14:07.291Z,12.00
2023-04-05T09:16:38.031Z,12.30
2023-04-05T09:19:05.834Z,12.40
2023-04-05T09:21:59.129Z,12.50
2023-04-05T09:24:39.766Z,12.90
2023-04-05T09:27:17.784Z,13.10
2023-04-05T09:29:49.513Z,13.10
2023-04-05T09:32:18.390Z,13.00
2023-04-05T09:34:45.907Z,12.80
2023-04-05T09:37:23.174Z,12.90
2023-04-05T09:39:52.231Z,12.80
2023-04-05T09:42:23.323Z,13.00
2023-04-05T09:45:03.010Z,13.20
2023-04-05T09:47:49.949Z,13.30
2023-04-05T09:50:18.301Z,13.60
2023-04-05T09:52:46.277Z,13.30
2023-04-05T09:55:13.896Z,13.00
2023-04-05T09:57:44.102Z,12.40
2023-04-05T10:00:19.502Z,12.00
2023-04-05T10:02:52.124Z,11.80
2023-04-05T10:05:19.312Z,11.90
2023-04-05T10:07:46.282Z,12.10
2023-04-05T10:10:16.060Z,12.00
2023-04-05T10:12:43.176Z,12.30
2023-04-05T10:15:12.278Z,12.20
2023-04-05T10:18:04.306Z,12.20
2023-04-05T10:20:33.508Z,12.40
2023-04-05T10:23:22.722Z,12.30
2023-04-05T10:25:55.296Z,12.80
2023-04-05T10:28:36.228Z,13.30
2023-04-05T10:31:37.685Z,13.70
2023-04-05T10:34:06.668Z,13.70
2023-04-05T10:36:50.430Z,13.10
2023-04-05T10:39:46.665Z,13.00
2023-04-05T10:45:04.889Z,13.20
2023-04-05T10:47:36.916Z,13.60
2023-04-05T10:50:08.678Z,13.70
2023-04-05T10:52:36.403Z,13.10
2023-04-05T10:55:04.422Z,13.20
2023-04-05T10:57:32.548Z,13.30
2023-04-05T11:00:00.176Z,13.10
2023-04-05T11:02:30.411Z,13.30
2023-04-05T11:04:57.756Z,13.30
2023-04-05T11:07:24.932Z,13.30
2023-04-05T11:10:18.503Z,13.20
2023-04-05T11:12:52.509Z,13.60
2023-04-05T11:15:32.797Z,14.10
2023-04-05T11:18:20.659Z,14.50
2023-04-05T11:20:51.917Z,15.10
2023-04-05T11:23:24.870Z,15.40
2023-04-05T11:25:53.439Z,15.80
2023-04-05T11:28:26.227Z,15.10
2023-04-05T11:30:59.166Z,15.00
2023-04-05T11:34:10.124Z,14.80
2023-04-05T11:36:38.510Z,14.60
2023-04-05T11:39:23.792Z,14.10
2023-04-05T11:42:09.698Z,14.00
2023-04-05T11:44:48.532Z,14.20
2023-04-05T11:47:23.375Z,14.20
2023-04-05T11:49:51.354Z,14.10
2023-04-05T11:52:22.209Z,14.00
2023-04-05T11:54:49.950Z,14.10
2023-04-05T11:57:22.915Z,14.10
2023-04-05T11:59:52.104Z,14.40
2023-04-05T12:02:19.862Z,14.60
2023-04-05T12:04:55.794Z,14.60
2023-04-05T12:07:26.696Z,14.70
2023-04-05T12:10:12.108Z,15.20
2023-04-05T12:12:41.054Z,15.20
2023-04-05T12:15:12.691Z,15.60
2023-04-05T12:17:41.348Z,15.70
2023-04-05T12:20:09.193Z,16.10
2023-04-05T12:22:38.286Z,16.50
2023-04-05T12:25:06.252Z,16.60
2023-04-05T12:27:33.734Z,16.20
2023-04-05T12:30:36.404Z,16.10
2023-04-05T12:33:11.383Z,16.00
2023-04-05T12:35:39.687Z,15.80
2023-04-05T12:38:08.078Z,15.70
2023-04-05T12:40:35.999Z,16.10
2023-04-05T12:43:06.369Z,16.30
2023-04-05T12:45:43.713Z,15.90
2023-04-05T12:48:14.346Z,15.50
2023-04-05T12:50:48.583Z,15.50
2023-04-05T12:53:20.991Z,15.00
2023-04-05T12:55:55.233Z,14.80
2023-04-05T12:58:24.165Z,14.30
2023-04-05T13:00:51.113Z,14.00
2023-04-05T13:03:21.216Z,14.00
2023-04-05T13:05:49.366Z,14.10
2023-04-05T13:08:19.487Z,14.30
2023-04-05T13:10:47.565Z,14.80
2023-04-05T13:13:16.475Z,15.30
2023-04-05T13:15:44.797Z,15.80
2023-04-05T13:18:14.801Z,15.70
2023-04-05T13:20:45.321Z,15.80
2023-04-05T13:23:13.074Z,15.80
2023-04-05T13:25:45.492Z,15.10
2023-04-05T13:28:12.864Z,15.00
2023-04-05T13:30:39.707Z,14.80
2023-04-05T13:33:06.847Z,14.80
2023-04-05T13:35:33.952Z,14.70
2023-04-05T13:38:04.341Z,14.40
2023-04-05T13:40:32.343Z,14.40
2023-04-05T13:42:59.471Z,14.50
2023-04-05T13:45:27.624Z,14.50
2023-04-05T13:47:55.006Z,14.60
2023-04-05T13:50:21.941Z,15.00
2023-04-05T13:52:48.843Z,15.80
2023-04-05T13:55:15.783Z,16.00
2023-04-05T13:57:42.977Z,16.10
2023-04-05T14:00:10.868Z,16.10
2023-04-05T14:02:41.558Z,15.90
2023-04-05T14:05:09.309Z,15.60
2023-04-05T14:07:36.632Z,15.80
2023-04-05T14:10:03.796Z,16.00
2023-04-05T14:12:31.665Z,16.40
2023-04-05T14:15:00.305Z,16.60
2023-04-05T14:17:27.433Z,16.90
2023-04-05T14:19:54.427Z,16.90
2023-04-05T14:22:22.464Z,16.70
2023-04-05T14:24:49.569Z,16.90
2023-04-05T14:27:16.498Z,17.10
2023-04-05T14:29:45.820Z,16.90
2023-04-05T14:32:13.011Z,16.80
2023-04-05T14:34:40.302Z,16.40
2023-04-05T14:37:07.934Z,15.90
2023-04-05T14:39:35.038Z,15.50
2023-04-05T14:42:02.420Z,15.20
2023-04-05T14:44:29.445Z,15.50
2023-04-05T14:46:56.578Z,15.70
2023-04-05T14:49:23.706Z,16.20
2023-04-05T14:51:50.842Z,16.70
2023-04-05T14:54:18.673Z,17.00
2023-04-05T14:56:45.674Z,17.30
2023-04-05T14:59:12.752Z,17.60
2023-04-05T15:01:42.585Z,17.70
2023-04-05T15:04:09.711Z,17.80
2023-04-05T15:06:37.942Z,18.20
2023-04-05T15:09:05.155Z,18.60
2023-04-05T15:11:35.668Z,17.80
2023-04-05T15:14:02.746Z,17.20
2023-04-05T15:16:30.621Z,17.00
2023-04-05T15:18:59.183Z,17.20
2023-04-05T15:21:26.144Z,17.50
2023-04-05T15:23:53.371Z,17.90
2023-04-05T15:26:21.077Z,17.70
2023-04-05T15:28:48.013Z,18.00
2023-04-05T15:31:15.023Z,18.60
2023-04-05T15:33:41.915Z,19.50
2023-04-05T15:36:08.981Z,20.00
2023-04-05T15:38:36.017Z,19.70
2023-04-05T15:41:02.921Z,19.30
2023-04-05T15:43:32.374Z,18.50
2023-04-05T15:45:59.371Z,17.70
2023-04-05T15:48:26.366Z,17.60
2023-04-05T15:50:53.229Z,18.10
2023-04-05T15:53:20.406Z,19.30
2023-04-05T15:55:47.387Z,19.90
2023-04-05T15:58:14.583Z,20.00
2023-04-05T16:00:41.727Z,20.60
2023-04-05T16:03:09.089Z,20.60
2023-04-05T16:05:36.510Z,20.50
2023-04-05T16:08:03.466Z,20.30
2023-04-05T16:10:30.665Z,19.30
2023-04-05T16:13:31.033Z,18.40
2023-04-05T16:15:58.257Z,17.80
2023-04-05T16:18:26.166Z,17.20
2023-04-05T16:20:53.183Z,16.60
2023-04-05T16:23:20.372Z,15.70
2023-04-05T16:25:47.643Z,15.20
2023-04-05T16:28:14.528Z,14.70
2023-04-05T16:30:42.249Z,14.40
2023-04-05T16:33:09.149Z,14.20
2023-04-05T16:35:36.275Z,14.10
2023-04-05T16:38:04.235Z,13.80
2023-04-05T16:40:32.806Z,13.70
2023-04-05T16:42:59.806Z,13.60
2023-04-05T16:45:28.757Z,13.40
2023-04-05T16:47:55.974Z,13.40
2023-04-05T16:50:23.208Z,13.40
2023-04-05T16:52:50.554Z,13.40
2023-04-05T16:55:17.601Z,13.30
2023-04-05T16:57:44.610Z,13.30
2023-04-05T17:00:12.553Z,13.20
2023-04-05T17:02:39.735Z,13.00
2023-04-05T17:05:07.258Z,13.10
2023-04-05T17:07:34.365Z,12.90
2023-04-05T17:10:04.652Z,12.80
2023-04-05T17:12:34.626Z,12.80
2023-04-05T17:15:03.299Z,12.70
2023-04-05T17:17:30.778Z,12.60
2023-04-05T17:19:57.662Z,12.50
2023-04-05T17:22:24.707Z,12.40
2023-04-05T17:24:51.769Z,12.30
2023-04-05T17:27:20.469Z,12.20
2023-04-05T17:29:47.509Z,12.10
2023-04-05T17:32:14.640Z,12.10
2023-04-05T17:34:41.909Z,12.10
2023-04-05T17:37:08.987Z,12.00
2023-04-05T17:39:36.596Z,11.90
2023-04-05T17:42:03.681Z,11.80
2023-04-05T17:44:30.872Z,11.80
2023-04-05T17:47:08.721Z,11.70
2023-04-05T17:49:37.783Z,11.70
2023-04-05T17:52:06.152Z,11.60
2023-04-05T17:54:47.345Z,11.60
2023-04-05T17:57:17.185Z,11.40
2023-04-05T17:59:49.431Z,11.40
2023-04-05T18:02:16.713Z,11.40
2023-04-05T18:04:44.356Z,11.40
2023-04-05T18:07:12.344Z,11.20
2023-04-05T18:09:42.030Z,11.20
2023-04-05T18:12:09.606Z,11.20
2023-04-05T18:14:37.074Z,11.30
2023-04-05T18:17:07.516Z,11.20
2023-04-05T18:19:34.758Z,11.10
2023-04-05T18:22:01.830Z,11.10
2023-04-05T18:24:29.318Z,11.00
2023-04-05T18:26:57.395Z,11.10
2023-04-05T18:29:28.581Z,11.00
2023-04-05T18:31:56.617Z,10.90
2023-04-05T18:34:24.062Z,10.80
2023-04-05T18:36:51.276Z,10.70
2023-04-05T18:39:20.063Z,10.70
2023-04-05T18:41:48.275Z,10.80
2023-04-05T18:44:15.565Z,10.80
2023-04-05T18:46:42.614Z,10.80
2023-04-05T18:49:09.899Z,10.80
2023-04-05T18:51:37.366Z,10.60
2023-04-05T18:54:04.554Z,10.60
2023-04-05T18:56:31.658Z,10.50
2023-04-05T18:58:58.946Z,10.50
2023-04-05T19:01:26.200Z,10.40
2023-04-05T19:03:53.167Z,10.30
2023-04-05T19:06:22.867Z,10.30
2023-04-05T19:08:49.908Z,10.30
2023-04-05T19:11:19.645Z,10.20
2023-04-05T19:13:46.958Z,10.20
2023-04-05T19:16:14.074Z,10.20
2023-04-05T19:18:41.087Z,10.10
2023-04-05T19:21:08.801Z,10.00
2023-04-05T19:23:36.866Z,10.00
2023-04-05T19:26:03.900Z,9.90
2023-04-05T19:28:30.921Z,9.90
2023-04-05T19:30:57.941Z,9.80
2023-04-05T19:33:24.868Z,9.70
2023-04-05T19:35:52.064Z,9.60
2023-04-05T19:38:21.265Z,9.50
2023-04-05T19:40:48.404Z,9.50
2023-04-05T19:43:15.725Z,9.50
2023-04-05T19:45:43.217Z,9.50
2023-04-05T19:48:34.923Z,9.50
2023-04-05T19:51:05.665Z,9.50
2023-04-05T19:53:39.814Z,9.50
2023-04-05T19:56:15.156Z,9.40
2023-04-05T19:58:43.202Z,9.40
2023-04-05T20:01:10.478Z,9.30
2023-04-05T20:03:39.495Z,9.30
2023-04-05T20:06:11.273Z,9.20
2023-04-05T20:08:48.007Z,9.30
2023-04-05T20:11:22.033Z,9.30
2023-04-05T20:13:58.859Z,9.30
2023-04-05T20:16:26.995Z,9.20
2023-04-05T20:18:56.880Z,9.20
2023-04-05T20:21:24.334Z,9.20
2023-04-05T20:23:51.395Z,9.20
2023-04-05T20:26:24.740Z,9.10
2023-04-05T20:28:55.988Z,9.10
2023-04-05T20:31:32.867Z,9.10
2023-04-05T20:34:24.514Z,8.90
2023-04-05T20:36:54.790Z,8.90
2023-04-05T20:39:23.737Z,8.90
2023-04-05T20:41:51.111Z,8.80
2023-04-05T20:44:18.395Z,8.70
2023-04-05T20:46:45.446Z,8.80
2023-04-05T20:49:12.726Z,8.80
2023-04-05T20:51:41.884Z,8.80
2023-04-05T20:54:09.774Z,8.70
2023-04-05T20:56:36.636Z,8.60
2023-04-05T20:59:03.621Z,8.70
2023-04-05T21:01:30.641Z,8.60
2023-04-05T21:03:57.810Z,8.70
2023-04-05T21:06:24.870Z,8.70
2023-04-05T21:08:51.768Z,8.60
2023-04-05T21:11:18.745Z,8.60
2023-04-05T21:13:45.928Z,8.50
2023-04-05T21:16:13.062Z,8.50
2023-04-05T21:18:40.069Z,8.60
2023-04-05T21:21:07.064Z,8.50
2023-04-05T21:23:34.649Z,8.50
2023-04-05T21:26:02.303Z,8.40
2023-04-05T21:28:29.190Z,8.30
2023-04-05T21:30:56.365Z,8.40
2023-04-05T21:33:24.594Z,8.40
2023-04-05T21:35:51.899Z,8.30
2023-04-05T21:38:19.178Z,8.30
2023-04-05T21:40:46.651Z,8.30
2023-04-05T21:43:13.905Z,8.30
2023-04-05T21:45:41.034Z,8.30
2023-04-05T21:48:08.458Z,8.30
2023-04-05T21:50:35.666Z,8.30
2023-04-05T21:53:02.800Z,8.30
2023-04-05T21:55:29.753Z,8.30
2023-04-05T21:57:56.771Z,8.20
2023-04-05T22:00:23.811Z,8.20
2023-04-05T22:02:51.144Z,8.30
2023-04-05T22:05:34.074Z,8.20
2023-04-05T22:08:05.972Z,8.20
2023-04-05T22:10:33.720Z,8.20
2023-04-05T22:13:00.898Z,8.30
2023-04-05T22:15:27.849Z,8.30
2023-04-05T22:17:54.848Z,8.30
2023-04-05T22:20:21.744Z,8.30
2023-04-05T22:22:48.708Z,8.30
2023-04-05T22:25:17.899Z,8.20
2023-04-05T22:27:44.816Z,8.10
2023-04-05T22:30:12.249Z,8.10
2023-04-05T22:32:39.265Z,8.10
2023-04-05T22:35:06.804Z,8.10
2023-04-05T22:37:36.462Z,8.20
2023-04-05T22:40:04.629Z,8.10
2023-04-05T22:42:32.109Z,8.00
2023-04-05T22:44:59.247Z,8.10
2023-04-05T22:47:26.431Z,8.10
2023-04-05T22:49:53.720Z,8.00
2023-04-05T22:52:21.034Z,8.00
2023-04-05T22:54:48.117Z,8.00
2023-04-05T22:57:15.264Z,8.10
2023-04-05T22:59:42.430Z,8.00
2023-04-05T23:02:09.929Z,8.00
2023-04-05T23:04:37.086Z,8.10
2023-04-05T23:07:04.327Z,8.10
2023-04-05T23:09:31.573Z,8.10
2023-04-05T23:11:58.481Z,8.10
2023-04-05T23:14:25.737Z,8.10
2023-04-05T23:16:52.734Z,8.20
2023-04-05T23:19:19.883Z,8.10
2023-04-05T23:21:46.821Z,8.20
2023-04-05T23:24:13.797Z,8.10
2023-04-05T23:26:41.018Z,8.10
2023-04-05T23:29:08.100Z,8.10
2023-04-05T23:31:35.346Z,8.10
2023-04-05T23:34:02.653Z,8.00
2023-04-05T23:36:29.617Z,8.00
2023-04-05T23:38:58.646Z,8.10
2023-04-05T23:41:25.764Z,8.10
2023-04-05T23:43:52.853Z,8.10
2023-04-05T23:46:19.926Z,8.20
2023-04-05T23:48:47.335Z,8.20
2023-04-05T23:51:14.311Z,8.20
2023-04-05T23:53:41.659Z,8.20
2023-04-05T23:56:08.983Z,8.10
2023-04-05T23:58:36.135Z,8.00
